Time;durP1;ratioP1;P1;durP2;ratioP2;P2;SDS_P1;SDS_P2;PMS_P1;PMS_P2;Temp;Humidity;BMP_temperature;BMP_pressure;BME280_temperature;BME280_humidity;BME280_pressure;Samples;Min_cycle;Max_cycle;Signal;HPM_P1;HPM_P2
2023/05/16 00:00:19;;;;;;;4.93;4.37;;;10.10;1.00;;;;;;5077084;28;20174;-71
2023/05/16 00:02:46;;;;;;;5.87;4.77;;;10.10;1.00;;;;;;5074750;28;20528;-72
2023/05/16 00:05:14;;;;;;;7.20;5.30;;;10.10;1.00;;;;;;5088099;28;20415;-71
2023/05/16 00:07:43;;;;;;;13.43;4.83;;;10.00;1.00;;;;;;5094779;28;20370;-68
2023/05/16 00:10:10;;;;;;;7.57;4.37;;;10.10;1.00;;;;;;5075390;28;20404;-73
2023/05/16 00:12:36;;;;;;;5.90;4.70;;;10.10;1.00;;;;;;5074420;28;20416;-72
2023/05/16 00:15:04;;;;;;;7.20;4.90;;;10.20;1.00;;;;;;5090682;28;20927;-73
2023/05/16 00:17:29;;;;;;;6.80;4.03;;;10.10;1.00;;;;;;5094666;28;20880;-73
2023/05/16 00:19:57;;;;;;;4.60;4.30;;;10.20;1.00;;;;;;5078943;28;20394;-69
2023/05/16 00:22:26;;;;;;;3.97;3.67;;;10.10;1.00;;;;;;5073564;28;20202;-73
2023/05/16 00:24:52;;;;;;;6.10;3.90;;;10.10;1.00;;;;;;5087854;28;20473;-70
2023/05/16 00:27:17;;;;;;;4.17;3.87;;;10.10;1.00;;;;;;5089122;28;20517;-72
2023/05/16 00:29:43;;;;;;;6.53;5.20;;;10.10;1.00;;;;;;5073997;28;20424;-73
2023/05/16 00:32:09;;;;;;;5.37;3.70;;;10.10;1.00;;;;;;5081847;28;20748;-73
2023/05/16 00:34:35;;;;;;;4.03;3.63;;;10.20;1.00;;;;;;5094274;28;20157;-72
2023/05/16 00:37:01;;;;;;;8.53;4.67;;;10.30;1.00;;;;;;5085372;28;20216;-68
2023/05/16 00:39:26;;;;;;;3.43;3.23;;;10.20;1.00;;;;;;5073896;28;20170;-71
2023/05/16 00:41:52;;;;;;;3.10;2.90;;;10.30;1.00;;;;;;5079527;28;20409;-68
2023/05/16 00:44:18;;;;;;;3.77;3.47;;;10.30;1.00;;;;;;5091965;28;20185;-69
2023/05/16 00:46:43;;;;;;;4.23;3.83;;;10.30;1.00;;;;;;5078617;28;20224;-72
2023/05/16 00:49:10;;;;;;;3.07;2.87;;;10.30;1.00;;;;;;5093205;28;20173;-72
2023/05/16 00:51:37;;;;;;;3.40;3.03;;;10.40;1.00;;;;;;5089369;28;20174;-71
2023/05/16 00:54:03;;;;;;;3.17;2.87;;;10.40;1.00;;;;;;5073603;28;20413;-71
2023/05/16 00:56:29;;;;;;;4.47;2.73;;;10.40;1.00;;;;;;5074693;28;20376;-73
2023/05/16 00:58:55;;;;;;;3.60;3.30;;;10.40;1.00;;;;;;5073360;28;20408;-71
2023/05/16 01:01:24;;;;;;;3.67;3.37;;;10.40;1.00;;;;;;5072585;28;20386;-73
2023/05/16 01:03:50;;;;;;;4.63;3.97;;;10.30;1.00;;;;;;5073300;28;20437;-73
2023/05/16 01:06:15;;;;;;;3.37;3.10;;;10.40;1.00;;;;;;5077246;28;20426;-71
2023/05/16 01:08:41;;;;;;;3.67;3.37;;;10.40;1.00;;;;;;5073986;28;20420;-73
2023/05/16 01:11:30;;;;;;;3.73;3.43;;;10.40;1.00;;;;;;5071346;28;20170;-68
2023/05/16 01:14:14;;;;;;;3.90;3.60;;;10.40;1.00;;;;;;5071963;28;20190;-67
2023/05/16 01:17:12;;;;;;;4.10;3.40;;;10.50;1.00;;;;;;5079195;28;20391;-70
2023/05/16 01:20:02;;;;;;;4.13;3.37;;;10.60;1.00;;;;;;5041235;28;20425;-68
2023/05/16 01:22:56;;;;;;;3.20;3.00;;;10.60;1.00;;;;;;5084770;28;20440;-68
2023/05/16 01:25:47;;;;;;;8.00;3.57;;;10.60;1.00;;;;;;5093140;28;20465;-71
2023/05/16 01:28:15;;;;;;;3.97;3.57;;;10.50;1.00;;;;;;5073099;28;20387;-72
2023/05/16 01:30:41;;;;;;;3.70;3.00;;;10.60;1.00;;;;;;5072493;28;20753;-69
2023/05/16 01:33:07;;;;;;;3.33;3.03;;;10.60;1.00;;;;;;5091976;28;20505;-68
2023/05/16 01:35:53;;;;;;;3.60;3.30;;;10.60;1.00;;;;;;5087580;28;20597;-72
2023/05/16 01:38:26;;;;;;;3.40;3.03;;;10.70;1.00;;;;;;5071881;28;20942;-72
2023/05/16 01:41:03;;;;;;;8.87;3.47;;;10.60;1.00;;;;;;5072657;28;20461;-69
2023/05/16 01:43:34;;;;;;;6.70;3.53;;;10.70;1.00;;;;;;5093298;28;20394;-67
2023/05/16 01:46:12;;;;;;;4.17;3.13;;;10.70;1.00;;;;;;5091631;28;20471;-71
2023/05/16 01:49:08;;;;;;;5.00;3.23;;;10.70;1.00;;;;;;5072465;28;20506;-71
2023/05/16 01:51:38;;;;;;;5.50;3.20;;;10.60;1.00;;;;;;5068398;28;20418;-69
2023/05/16 01:54:08;;;;;;;5.10;2.70;;;10.60;1.00;;;;;;5075940;28;20520;-71
2023/05/16 01:56:36;;;;;;;4.30;2.77;;;10.60;1.00;;;;;;5076385;28;20924;-69
2023/05/16 01:59:03;;;;;;;4.57;3.10;;;10.60;1.00;;;;;;5093040;28;20396;-68
2023/05/16 02:01:30;;;;;;;11.20;2.97;;;10.60;1.00;;;;;;5088446;28;20420;-68
2023/05/16 02:03:57;;;;;;;2.80;2.60;;;10.60;1.00;;;;;;5072714;28;20428;-68
2023/05/16 02:06:23;;;;;;;8.67;3.93;;;10.70;1.00;;;;;;5074482;28;20433;-73
2023/05/16 02:08:49;;;;;;;8.70;3.57;;;10.70;1.00;;;;;;5093097;28;20395;-68
2023/05/16 02:11:14;;;;;;;11.17;3.10;;;10.60;1.00;;;;;;5073717;28;20415;-69
2023/05/16 02:13:40;;;;;;;3.57;2.80;;;10.60;1.00;;;;;;5092855;28;20189;-71
2023/05/16 02:16:05;;;;;;;8.93;2.90;;;10.60;1.00;;;;;;5092979;28;20185;-71
2023/05/16 02:18:31;;;;;;;7.93;2.90;;;10.60;1.00;;;;;;5073596;28;20253;-72
2023/05/16 02:20:57;;;;;;;7.40;2.73;;;10.60;1.00;;;;;;5071818;28;20647;-68
2023/05/16 02:23:22;;;;;;;5.70;2.97;;;10.60;1.00;;;;;;5089607;28;20658;-72
2023/05/16 02:25:48;;;;;;;7.30;2.53;;;10.70;1.00;;;;;;5092735;28;20658;-73
2023/05/16 02:28:14;;;;;;;7.00;2.60;;;10.70;1.00;;;;;;5089507;28;20670;-73
2023/05/16 02:30:40;;;;;;;4.60;3.33;;;10.80;1.00;;;;;;5091890;28;20166;-68
2023/05/16 02:33:05;;;;;;;6.20;2.53;;;10.80;1.00;;;;;;5074922;28;20186;-73
2023/05/16 02:35:31;;;;;;;8.50;2.80;;;10.80;1.00;;;;;;5072570;28;20375;-72
2023/05/16 02:37:57;;;;;;;5.20;2.80;;;10.80;1.00;;;;;;5086865;28;20173;-72
2023/05/16 02:40:22;;;;;;;21.57;4.30;;;10.80;1.00;;;;;;5091633;28;20170;-72
2023/05/16 02:42:48;;;;;;;10.70;3.60;;;10.90;1.00;;;;;;5077192;28;20289;-72
2023/05/16 02:45:13;;;;;;;5.03;2.73;;;10.90;1.00;;;;;;5089741;28;20204;-68
2023/05/16 02:47:39;;;;;;;10.90;2.80;;;10.90;1.00;;;;;;5075666;28;20180;-68
2023/05/16 02:50:05;;;;;;;9.03;2.53;;;10.80;1.00;;;;;;5071746;28;20154;-74
2023/05/16 02:52:31;;;;;;;13.70;4.50;;;10.80;1.00;;;;;;5084597;28;20217;-72
2023/05/16 02:54:56;;;;;;;13.23;3.37;;;10.80;1.00;;;;;;5092359;28;20436;-71
2023/05/16 02:57:22;;;;;;;2.53;2.33;;;10.80;1.00;;;;;;5091823;28;20185;-71
2023/05/16 02:59:48;;;;;;;6.20;2.73;;;10.90;1.00;;;;;;5093501;28;20172;-73
2023/05/16 03:02:13;;;;;;;11.43;3.57;;;10.80;1.00;;;;;;5087363;28;20657;-69
2023/05/16 03:04:39;;;;;;;12.97;3.70;;;10.80;1.00;;;;;;5095444;28;20590;-68
2023/05/16 03:07:05;;;;;;;9.67;3.20;;;10.80;1.00;;;;;;5076759;28;20666;-72
2023/05/16 03:09:30;;;;;;;16.87;3.13;;;10.80;1.00;;;;;;5075728;28;20523;-69
2023/05/16 03:11:56;;;;;;;11.20;4.23;;;10.80;1.00;;;;;;5087092;28;20257;-72
2023/05/16 03:14:22;;;;;;;14.10;4.67;;;10.80;1.00;;;;;;5075523;28;20663;-69
2023/05/16 03:16:47;;;;;;;9.93;3.40;;;10.80;1.00;;;;;;5075567;28;20162;-69
2023/05/16 03:19:13;;;;;;;6.57;2.50;;;10.80;1.00;;;;;;5078090;28;20189;-72
2023/05/16 03:21:39;;;;;;;5.03;2.77;;;10.80;1.00;;;;;;5073270;28;20268;-71
2023/05/16 03:24:05;;;;;;;8.17;2.43;;;10.80;1.00;;;;;;5076370;28;20205;-67
2023/05/16 03:26:31;;;;;;;9.10;2.90;;;10.80;1.00;;;;;;5075309;28;20274;-69
2023/05/16 03:28:56;;;;;;;9.30;2.90;;;10.80;1.00;;;;;;5085731;28;20418;-68
2023/05/16 03:31:22;;;;;;;9.73;2.83;;;10.80;1.00;;;;;;5094837;28;20172;-71
2023/05/16 03:33:48;;;;;;;12.63;3.10;;;10.80;1.00;;;;;;5086273;28;20190;-68
2023/05/16 03:36:13;;;;;;;5.63;3.03;;;10.70;1.00;;;;;;5092636;28;20642;-69
2023/05/16 03:38:39;;;;;;;7.17;3.50;;;10.70;1.00;;;;;;5087511;28;20173;-71
2023/05/16 03:41:05;;;;;;;12.73;3.00;;;10.80;1.00;;;;;;5073943;28;20169;-67
2023/05/16 03:43:31;;;;;;;4.10;2.70;;;10.60;1.00;;;;;;5080106;28;20566;-70
2023/05/16 03:45:56;;;;;;;13.20;4.00;;;10.60;1.00;;;;;;5095198;28;20216;-71
2023/05/16 03:48:22;;;;;;;7.63;2.80;;;10.60;1.00;;;;;;5087318;28;20562;-68
2023/05/16 03:50:48;;;;;;;4.27;2.60;;;10.60;1.00;;;;;;5074175;28;20586;-72
2023/05/16 03:53:13;;;;;;;12.77;3.07;;;10.60;1.00;;;;;;5080724;28;20235;-70
2023/05/16 03:55:39;;;;;;;13.63;4.93;;;10.60;1.00;;;;;;5095144;28;20201;-69
2023/05/16 03:58:05;;;;;;;8.57;3.13;;;10.60;1.00;;;;;;5090358;28;20249;-73
2023/05/16 04:00:30;;;;;;;7.60;3.07;;;10.60;1.00;;;;;;5073802;28;20171;-67
2023/05/16 04:02:56;;;;;;;11.00;2.60;;;10.60;1.00;;;;;;5077671;28;20201;-70
2023/05/16 04:05:22;;;;;;;8.90;2.93;;;10.60;1.00;;;;;;5074612;28;20268;-71
2023/05/16 04:07:47;;;;;;;23.67;3.83;;;10.60;1.00;;;;;;5074678;28;20235;-70
2023/05/16 04:10:14;;;;;;;10.83;3.50;;;10.50;1.00;;;;;;5089836;28;20185;-72
2023/05/16 04:12:39;;;;;;;11.07;3.87;;;10.60;1.00;;;;;;5090249;28;20189;-67
2023/05/16 04:15:06;;;;;;;13.10;3.37;;;10.60;1.00;;;;;;5074379;28;20382;-72
2023/05/16 04:17:32;;;;;;;10.37;3.20;;;10.60;1.00;;;;;;5073776;28;20174;-70
2023/05/16 04:19:59;;;;;;;8.57;3.20;;;10.60;1.00;;;;;;5094093;28;20403;-68
2023/05/16 04:22:25;;;;;;;11.17;3.20;;;10.60;1.00;;;;;;5093767;28;20498;-73
2023/05/16 04:24:51;;;;;;;7.30;3.50;;;10.60;1.00;;;;;;5073150;28;20487;-69
2023/05/16 04:27:16;;;;;;;14.13;3.80;;;10.60;1.00;;;;;;5091939;28;20193;-69
2023/05/16 04:29:43;;;;;;;8.27;2.90;;;10.60;1.00;;;;;;5076118;28;20527;-68
2023/05/16 04:32:09;;;;;;;11.40;3.50;;;10.60;1.00;;;;;;5093264;28;20514;-67
2023/05/16 04:34:36;;;;;;;7.30;5.03;;;10.60;1.00;;;;;;5093502;28;20415;-67
2023/05/16 04:37:06;;;;;;;9.30;2.97;;;10.70;1.00;;;;;;5093671;28;20434;-71
2023/05/16 04:39:35;;;;;;;14.03;4.23;;;10.80;1.00;;;;;;5077248;28;20756;-70
2023/05/16 04:42:03;;;;;;;8.63;2.87;;;10.80;1.00;;;;;;5072750;28;20944;-68
2023/05/16 04:44:28;;;;;;;9.17;3.27;;;10.70;1.00;;;;;;5078483;28;20482;-69
2023/05/16 04:46:54;;;;;;;6.93;3.37;;;10.70;1.00;;;;;;5073777;28;20447;-69
2023/05/16 04:49:20;;;;;;;4.10;2.40;;;10.70;1.00;;;;;;5086276;28;20176;-69
2023/05/16 04:51:47;;;;;;;6.20;3.37;;;10.80;1.00;;;;;;5093355;28;20200;-73
2023/05/16 04:54:12;;;;;;;6.50;3.10;;;10.70;1.00;;;;;;5082627;28;20436;-68
2023/05/16 04:56:38;;;;;;;10.43;3.30;;;10.60;1.00;;;;;;5073126;28;20886;-72
2023/05/16 04:59:04;;;;;;;6.03;3.27;;;10.60;1.00;;;;;;5082580;28;20252;-72
2023/05/16 05:01:30;;;;;;;9.17;3.00;;;10.60;1.00;;;;;;5073182;28;20642;-67
2023/05/16 05:03:55;;;;;;;8.57;2.83;;;10.60;1.00;;;;;;5080962;28;20197;-69
2023/05/16 05:06:21;;;;;;;5.10;3.17;;;10.60;1.00;;;;;;5093618;28;20254;-72
2023/05/16 05:08:47;;;;;;;12.03;4.33;;;10.60;1.00;;;;;;5092095;28;20174;-72
2023/05/16 05:11:13;;;;;;;5.17;2.70;;;10.60;1.00;;;;;;5092829;28;20172;-67
2023/05/16 05:13:38;;;;;;;10.13;2.30;;;10.50;1.00;;;;;;5084670;28;20920;-68
2023/05/16 05:16:04;;;;;;;5.33;2.87;;;10.50;1.00;;;;;;5072341;28;20261;-69
2023/05/16 05:18:30;;;;;;;13.90;3.13;;;10.60;1.00;;;;;;5079366;28;20235;-71
2023/05/16 05:20:57;;;;;;;8.50;3.60;;;10.60;1.00;;;;;;5092528;28;20402;-69
2023/05/16 05:23:22;;;;;;;4.30;2.63;;;10.50;1.00;;;;;;5084054;28;20444;-67
2023/05/16 05:25:49;;;;;;;4.60;2.50;;;10.50;1.00;;;;;;5072950;28;20451;-71
2023/05/16 05:28:15;;;;;;;10.43;4.40;;;10.50;1.00;;;;;;5078252;28;20193;-69
2023/05/16 05:30:41;;;;;;;5.37;2.50;;;10.60;1.00;;;;;;5091291;28;20415;-71
2023/05/16 05:33:06;;;;;;;7.17;2.80;;;10.60;1.00;;;;;;5072801;28;20444;-68
2023/05/16 05:35:32;;;;;;;6.53;3.47;;;10.70;1.00;;;;;;5092794;28;20937;-69
2023/05/16 05:37:58;;;;;;;4.70;2.47;;;10.70;1.00;;;;;;5073686;28;20208;-70
2023/05/16 05:40:24;;;;;;;15.03;2.63;;;10.80;1.00;;;;;;5070823;28;20174;-69
2023/05/16 05:42:50;;;;;;;5.20;2.27;;;10.80;1.00;;;;;;5088865;28;20606;-69
2023/05/16 05:45:16;;;;;;;3.93;2.60;;;10.80;1.00;;;;;;5093061;28;20375;-69
2023/05/16 05:47:44;;;;;;;5.60;2.50;;;10.90;1.00;;;;;;5077051;28;20416;-68
2023/05/16 05:50:10;;;;;;;7.10;3.40;;;10.90;1.00;;;;;;5072801;28;20216;-68
2023/05/16 05:52:37;;;;;;;7.73;2.40;;;11.00;1.00;;;;;;5071355;28;20407;-67
2023/05/16 05:55:03;;;;;;;17.40;2.67;;;11.00;99.90;;;;;;5076155;28;20638;-69
2023/05/16 05:57:28;;;;;;;9.13;2.87;;;10.90;99.90;;;;;;5072907;28;20419;-70
2023/05/16 05:59:54;;;;;;;9.03;3.00;;;10.90;99.90;;;;;;5079935;28;21008;-71
2023/05/16 06:02:20;;;;;;;7.53;2.77;;;10.80;99.90;;;;;;5092230;28;20189;-69
2023/05/16 06:04:45;;;;;;;6.00;2.20;;;10.80;99.90;;;;;;5086974;28;20174;-69
2023/05/16 06:07:11;;;;;;;12.87;4.57;;;10.70;99.90;;;;;;5072311;28;20244;-71
2023/05/16 06:09:37;;;;;;;7.57;2.97;;;10.60;99.90;;;;;;5092464;28;20165;-70
2023/05/16 06:12:03;;;;;;;9.00;2.20;;;10.60;99.90;;;;;;5088619;28;20383;-70
2023/05/16 06:14:29;;;;;;;7.27;2.27;;;10.70;99.90;;;;;;5072711;28;20453;-68
2023/05/16 06:16:55;;;;;;;3.87;2.47;;;10.60;99.90;;;;;;5073742;28;20483;-71
2023/05/16 06:19:21;;;;;;;3.53;2.20;;;10.70;99.90;;;;;;5093050;28;20201;-70
2023/05/16 06:21:46;;;;;;;6.77;1.87;;;10.70;99.90;;;;;;5084364;28;20261;-71
2023/05/16 06:24:12;;;;;;;11.67;3.17;;;10.90;99.90;;;;;;5071552;28;20789;-71
2023/05/16 06:26:38;;;;;;;12.53;2.60;;;10.90;99.90;;;;;;5075226;28;20566;-72
2023/05/16 06:29:03;;;;;;;6.80;2.20;;;11.00;99.90;;;;;;5092843;28;20219;-69
2023/05/16 06:31:30;;;;;;;6.40;2.30;;;11.00;99.90;;;;;;5090230;28;20208;-69
2023/05/16 06:33:55;;;;;;;6.80;2.13;;;11.20;99.90;;;;;;5091657;28;20193;-71
2023/05/16 06:36:21;;;;;;;5.70;2.50;;;11.40;99.90;;;;;;5092914;28;20414;-71
2023/05/16 06:38:47;;;;;;;4.60;2.10;;;11.40;99.90;;;;;;5095504;28;20185;-69
2023/05/16 06:41:12;;;;;;;6.60;2.63;;;11.30;99.90;;;;;;5076355;28;20178;-71
2023/05/16 06:43:39;;;;;;;5.13;1.97;;;11.40;99.90;;;;;;5075539;28;20731;-71
2023/05/16 06:46:05;;;;;;;5.50;2.90;;;11.50;99.90;;;;;;5092352;28;20193;-70
2023/05/16 06:48:30;;;;;;;3.53;1.83;;;11.50;99.90;;;;;;5090031;28;20924;-71
2023/05/16 06:50:56;;;;;;;5.57;2.47;;;11.50;99.90;;;;;;5074983;28;20178;-71
2023/05/16 06:53:22;;;;;;;15.90;3.30;;;11.60;99.90;;;;;;5079675;28;20204;-69
2023/05/16 06:55:48;;;;;;;4.10;2.33;;;11.60;99.90;;;;;;5096318;28;20235;-67
2023/05/16 06:58:14;;;;;;;7.87;3.07;;;11.80;99.90;;;;;;5094595;28;20714;-69
2023/05/16 07:00:40;;;;;;;12.83;3.50;;;11.90;99.90;;;;;;5095261;28;20367;-69
2023/05/16 07:03:06;;;;;;;11.00;2.40;;;12.10;99.90;;;;;;5095168;28;20182;-68
2023/05/16 07:05:32;;;;;;;7.73;1.93;;;12.20;99.90;;;;;;5095291;28;20491;-71
2023/05/16 07:07:58;;;;;;;6.37;2.97;;;12.10;99.90;;;;;;5096100;28;20164;-71
2023/05/16 07:10:24;;;;;;;4.43;2.13;;;12.00;99.90;;;;;;5095028;28;20382;-71
2023/05/16 07:12:50;;;;;;;6.97;2.07;;;11.80;99.90;;;;;;5095944;28;20412;-72
2023/05/16 07:15:15;;;;;;;7.00;3.30;;;11.70;99.90;;;;;;5095879;28;20431;-71
2023/05/16 07:17:41;;;;;;;2.90;2.10;;;11.60;99.90;;;;;;5094560;28;20161;-71
2023/05/16 07:20:12;;;;;;;9.03;2.73;;;11.50;99.90;;;;;;5093355;28;20173;-73
2023/05/16 07:22:38;;;;;;;12.13;3.10;;;11.50;99.90;;;;;;5095604;28;20201;-71
2023/05/16 07:25:04;;;;;;;5.67;2.57;;;11.60;99.90;;;;;;5095675;28;20366;-71
2023/05/16 07:27:30;;;;;;;10.10;2.30;;;11.60;99.90;;;;;;5094407;28;20430;-69
2023/05/16 07:29:56;;;;;;;4.53;2.07;;;11.70;99.90;;;;;;5095338;28;20453;-72
2023/05/16 07:32:22;;;;;;;5.63;2.00;;;11.80;99.90;;;;;;5094124;28;20558;-71
2023/05/16 07:34:48;;;;;;;14.23;2.40;;;11.90;99.90;;;;;;5095540;28;20170;-68
2023/05/16 07:37:15;;;;;;;5.20;1.70;;;12.00;99.90;;;;;;5094313;28;20166;-69
2023/05/16 07:39:41;;;;;;;4.47;2.80;;;12.30;99.90;;;;;;5094108;28;20201;-69
2023/05/16 07:42:07;;;;;;;6.77;2.50;;;12.40;99.90;;;;;;5094486;28;20870;-68
2023/05/16 07:44:34;;;;;;;5.03;2.00;;;12.40;99.90;;;;;;5095211;28;20907;-72
2023/05/16 07:47:00;;;;;;;5.80;2.60;;;12.30;99.90;;;;;;5086172;28;20492;-70
2023/05/16 07:49:26;;;;;;;6.10;1.90;;;12.40;99.90;;;;;;5075101;28;20409;-67
2023/05/16 07:51:51;;;;;;;3.40;2.20;;;12.40;99.90;;;;;;5072801;28;20261;-70
2023/05/16 07:54:17;;;;;;;7.03;2.03;;;12.40;99.90;;;;;;5074487;28;20186;-69
2023/05/16 07:56:43;;;;;;;5.43;1.97;;;12.50;99.90;;;;;;5074558;28;20188;-72
2023/05/16 07:59:09;;;;;;;4.23;1.93;;;12.40;99.90;;;;;;5074672;28;20174;-68
2023/05/16 08:01:35;;;;;;;5.50;1.77;;;12.30;99.90;;;;;;5079368;28;20176;-71
2023/05/16 08:04:01;;;;;;;6.33;2.03;;;12.50;99.90;;;;;;5095075;28;20424;-70
2023/05/16 08:06:28;;;;;;;9.07;2.30;;;12.50;99.90;;;;;;5094898;28;20459;-70
2023/05/16 08:08:54;;;;;;;7.03;2.40;;;12.50;99.90;;;;;;5094909;28;20208;-68
2023/05/16 08:11:21;;;;;;;14.43;2.60;;;12.50;99.90;;;;;;5094007;28;20382;-67
2023/05/16 08:13:47;;;;;;;7.53;2.10;;;12.70;99.90;;;;;;5094010;28;20832;-69
2023/05/16 08:16:13;;;;;;;7.93;2.50;;;12.90;99.90;;;;;;5089162;28;20403;-71
2023/05/16 08:18:38;;;;;;;8.00;2.93;;;12.90;99.90;;;;;;5074580;28;20378;-70
2023/05/16 08:21:04;;;;;;;7.20;2.50;;;12.80;99.90;;;;;;5073436;28;20208;-70
2023/05/16 08:23:30;;;;;;;8.67;1.90;;;12.80;99.90;;;;;;5074185;28;20202;-69
2023/05/16 08:25:56;;;;;;;4.40;1.67;;;12.60;99.90;;;;;;5074244;28;20681;-69
2023/05/16 08:28:21;;;;;;;7.93;2.13;;;12.60;99.90;;;;;;5074168;28;20166;-70
2023/05/16 08:30:47;;;;;;;11.90;2.00;;;12.60;99.90;;;;;;5071816;28;20244;-68
2023/05/16 08:33:13;;;;;;;3.57;1.87;;;12.70;99.90;;;;;;5072140;28;20186;-68
2023/05/16 08:35:42;;;;;;;6.87;2.30;;;12.80;99.90;;;;;;5074064;28;20181;-66
2023/05/16 08:38:08;;;;;;;7.80;2.10;;;13.00;99.90;;;;;;5074131;28;20720;-68
2023/05/16 08:40:34;;;;;;;3.53;1.53;;;13.20;99.90;;;;;;5073101;28;20405;-68
2023/05/16 08:43:00;;;;;;;2.33;1.40;;;13.50;99.90;;;;;;5073751;28;20243;-67
2023/05/16 08:45:27;;;;;;;11.70;2.10;;;13.60;99.90;;;;;;5087213;28;20173;-70
2023/05/16 08:47:56;;;;;;;4.27;1.77;;;13.40;99.90;;;;;;5094140;28;20377;-70
2023/05/16 08:50:24;;;;;;;12.67;2.37;;;13.40;99.90;;;;;;5092826;28;20370;-69
2023/05/16 08:52:51;;;;;;;8.43;2.50;;;13.40;99.90;;;;;;5094051;28;20928;-71
2023/05/16 08:55:19;;;;;;;7.57;2.27;;;13.20;99.90;;;;;;5093533;28;20374;-69
2023/05/16 08:57:48;;;;;;;3.43;1.90;;;13.00;99.90;;;;;;5092011;28;20425;-68
2023/05/16 09:00:14;;;;;;;3.23;1.67;;;13.10;99.90;;;;;;5092243;28;20504;-68
2023/05/16 09:02:43;;;;;;;12.63;2.37;;;13.40;99.90;;;;;;5072291;28;20453;-70
2023/05/16 09:05:12;;;;;;;5.30;1.93;;;13.70;99.90;;;;;;5085087;28;20386;-69
2023/05/16 09:07:38;;;;;;;7.47;2.20;;;14.30;99.90;;;;;;5093067;28;20447;-71
2023/05/16 09:10:05;;;;;;;6.90;2.20;;;14.10;99.90;;;;;;5082400;28;20844;-72
2023/05/16 09:12:32;;;;;;;3.77;1.97;;;13.70;99.90;;;;;;5072709;28;20399;-69
2023/05/16 09:15:03;;;;;;;5.67;2.20;;;13.40;99.90;;;;;;5074541;28;20395;-68
2023/05/16 09:17:37;;;;;;;8.20;2.60;;;13.40;99.90;;;;;;5085028;28;20421;-69
2023/05/16 09:20:11;;;;;;;4.53;2.40;;;13.30;99.90;;;;;;5093429;28;20427;-70
2023/05/16 09:22:37;;;;;;;10.80;2.33;;;13.90;99.90;;;;;;5073057;28;20398;-69
2023/05/16 09:25:04;;;;;;;8.30;2.80;;;14.20;99.90;;;;;;5073154;28;20754;-70
2023/05/16 09:27:31;;;;;;;18.73;2.57;;;14.20;99.90;;;;;;5091288;28;20430;-70
2023/05/16 09:29:58;;;;;;;5.37;2.07;;;14.00;99.90;;;;;;5087259;28;20447;-68
2023/05/16 09:32:25;;;;;;;7.00;2.53;;;14.20;99.90;;;;;;5092682;28;20398;-68
2023/05/16 09:34:53;;;;;;;4.03;2.37;;;14.40;99.90;;;;;;5089197;28;20383;-65
2023/05/16 09:37:19;;;;;;;4.60;2.17;;;14.70;99.90;;;;;;5073190;28;20874;-68
2023/05/16 09:39:50;;;;;;;8.53;1.77;;;15.10;99.90;;;;;;5075154;28;20542;-67
2023/05/16 09:42:17;;;;;;;7.23;2.90;;;15.50;99.90;;;;;;5092462;28;20166;-69
2023/05/16 09:44:51;;;;;;;9.20;2.50;;;16.20;99.90;;;;;;5089024;28;20799;-69
2023/05/16 09:47:18;;;;;;;3.50;2.10;;;16.20;99.90;;;;;;5071303;28;20494;-70
2023/05/16 09:49:45;;;;;;;5.90;2.27;;;15.50;99.90;;;;;;5073674;28;20396;-67
2023/05/16 09:52:12;;;;;;;4.03;1.87;;;15.00;99.90;;;;;;5092217;28;20381;-68
2023/05/16 09:54:38;;;;;;;2.07;1.80;;;14.60;99.90;;;;;;5091937;28;20763;-67
2023/05/16 09:57:04;;;;;;;7.87;2.03;;;14.10;99.90;;;;;;5073142;28;20395;-68
2023/05/16 09:59:37;;;;;;;2.70;2.17;;;14.40;99.90;;;;;;5091400;28;20438;-70
2023/05/16 10:02:05;;;;;;;2.90;1.80;;;15.20;99.90;;;;;;5072359;28;20563;-69
2023/05/16 10:04:32;;;;;;;5.53;1.60;;;16.10;99.90;;;;;;5072646;28;20399;-68
2023/05/16 10:07:02;;;;;;;6.03;1.43;;;17.10;99.90;;;;;;5090094;28;20459;-68
2023/05/16 10:09:30;;;;;;;4.73;2.17;;;17.50;99.90;;;;;;5093090;28;20403;-65
2023/05/16 10:12:01;;;;;;;3.00;1.73;;;17.70;99.90;;;;;;5094403;28;20422;-68
2023/05/16 10:14:29;;;;;;;6.57;2.47;;;17.30;99.90;;;;;;5096930;28;21044;-70
2023/05/16 10:16:56;;;;;;;5.67;1.90;;;16.60;99.90;;;;;;5082026;28;20407;-70
2023/05/16 10:19:24;;;;;;;6.57;1.80;;;15.90;99.90;;;;;;5087740;28;20462;-68
2023/05/16 10:21:53;;;;;;;6.30;2.00;;;15.70;99.90;;;;;;5075898;28;20417;-70
2023/05/16 10:24:28;;;;;;;8.90;1.80;;;16.20;99.90;;;;;;5076105;28;20451;-69
2023/05/16 10:26:53;;;;;;;4.90;2.07;;;16.60;99.90;;;;;;5076150;28;21009;-67
2023/05/16 10:29:20;;;;;;;3.80;1.80;;;16.50;99.90;;;;;;5075422;28;20404;-68
2023/05/16 10:31:47;;;;;;;6.00;1.40;;;16.40;99.90;;;;;;5075580;28;20165;-68
2023/05/16 10:34:14;;;;;;;8.63;1.80;;;16.80;99.90;;;;;;5075023;28;21128;-65
2023/05/16 10:36:40;;;;;;;4.77;3.03;;;17.30;99.90;;;;;;5076429;28;20416;-65
2023/05/16 10:39:06;;;;;;;7.23;1.63;;;17.80;99.90;;;;;;5089247;28;20423;-71
2023/05/16 10:41:33;;;;;;;10.77;2.60;;;18.20;99.90;;;;;;5081652;28;20932;-70
2023/05/16 10:44:00;;;;;;;4.10;1.57;;;18.50;99.90;;;;;;5076021;28;20439;-68
2023/05/16 10:46:28;;;;;;;8.80;2.73;;;18.60;99.90;;;;;;5076021;28;20478;-67
2023/05/16 10:48:53;;;;;;;7.17;1.97;;;18.80;99.90;;;;;;5077092;28;20412;-69
2023/05/16 10:51:22;;;;;;;3.53;1.60;;;18.50;99.90;;;;;;5075194;28;20403;-65
2023/05/16 10:53:54;;;;;;;5.07;1.90;;;17.40;99.90;;;;;;5085840;28;20185;-66
2023/05/16 10:56:25;;;;;;;2.57;1.40;;;16.50;99.90;;;;;;5091425;28;20439;-67
2023/05/16 10:58:53;;;;;;;6.23;1.93;;;15.80;99.90;;;;;;5085737;28;20412;-70
2023/05/16 11:01:34;;;;;;;7.60;2.47;;;15.10;99.90;;;;;;5075077;28;20400;-66
2023/05/16 11:04:05;;;;;;;5.17;2.17;;;14.90;99.90;;;;;;5080526;28;20407;-66
2023/05/16 11:06:41;;;;;;;4.30;2.13;;;14.70;99.90;;;;;;5075601;28;20443;-68
2023/05/16 11:09:10;;;;;;;7.30;1.60;;;15.20;99.90;;;;;;5075890;28;20461;-68
2023/05/16 11:11:42;;;;;;;10.00;2.07;;;15.70;99.90;;;;;;5074189;28;20431;-67
2023/05/16 11:14:16;;;;;;;4.77;1.80;;;15.30;99.90;;;;;;5075603;28;20495;-69
2023/05/16 11:16:48;;;;;;;4.40;2.10;;;14.20;99.90;;;;;;5075005;28;20432;-68
2023/05/16 11:19:29;;;;;;;3.50;2.27;;;13.90;99.90;;;;;;5075566;28;20416;-70
2023/05/16 11:22:26;;;;;;;5.27;2.83;;;13.60;99.90;;;;;;5072179;28;20751;-65
2023/05/16 11:25:06;;;;;;;4.47;2.00;;;14.00;99.90;;;;;;5080058;28;20410;-66
2023/05/16 11:27:43;;;;;;;10.63;2.67;;;15.00;99.90;;;;;;5095553;28;20447;-67
2023/05/16 11:30:09;;;;;;;8.37;2.00;;;15.80;99.90;;;;;;5094822;28;20366;-65
2023/05/16 11:32:36;;;;;;;8.87;2.27;;;16.30;99.90;;;;;;5095418;28;20894;-68
2023/05/16 11:35:07;;;;;;;4.50;1.90;;;16.50;99.90;;;;;;5078793;28;20599;-68
2023/05/16 11:37:35;;;;;;;5.97;2.27;;;16.30;99.90;;;;;;5074500;28;20405;-68
2023/05/16 11:40:03;;;;;;;5.93;1.93;;;15.50;99.90;;;;;;5080708;28;20412;-67
2023/05/16 11:42:40;;;;;;;3.03;1.60;;;14.50;99.90;;;;;;5073312;28;20824;-69
2023/05/16 11:45:15;;;;;;;5.70;1.90;;;13.80;99.90;;;;;;5089028;28;20390;-69
2023/05/16 11:47:46;;;;;;;4.67;2.50;;;13.40;99.90;;;;;;5095279;28;20442;-69
2023/05/16 11:50:14;;;;;;;7.17;1.90;;;13.60;99.90;;;;;;5079777;28;20421;-68
2023/05/16 11:52:45;;;;;;;4.60;2.00;;;13.50;99.90;;;;;;5074434;28;20565;-70
2023/05/16 11:55:11;;;;;;;5.73;2.10;;;13.70;99.90;;;;;;5087701;28;20435;-69
2023/05/16 11:57:38;;;;;;;6.70;2.17;;;13.70;99.90;;;;;;5095178;28;20852;-67
2023/05/16 12:00:12;;;;;;;3.83;2.07;;;13.40;99.90;;;;;;5082406;28;20391;-76
2023/05/16 12:02:38;;;;;;;4.73;2.87;;;12.90;99.90;;;;;;5074719;28;20429;-68
2023/05/16 12:05:08;;;;;;;5.33;2.77;;;12.60;99.90;;;;;;5085567;28;20487;-68
2023/05/16 12:07:37;;;;;;;3.83;2.10;;;12.50;99.90;;;;;;5092828;28;20661;-67
2023/05/16 12:10:10;;;;;;;7.50;2.27;;;12.50;99.90;;;;;;5083976;28;20976;-69
2023/05/16 12:12:39;;;;;;;2.80;1.77;;;12.80;99.90;;;;;;5074072;28;20383;-68
2023/05/16 12:15:06;;;;;;;2.80;1.70;;;13.60;99.90;;;;;;5084051;28;20739;-66
2023/05/16 12:17:37;;;;;;;4.47;2.23;;;14.90;99.90;;;;;;5094512;28;20465;-65
2023/05/16 12:20:10;;;;;;;2.73;1.80;;;16.20;99.90;;;;;;5085310;28;20461;-66
2023/05/16 12:22:47;;;;;;;2.63;1.50;;;16.80;99.90;;;;;;5073638;28;20460;-69
2023/05/16 12:25:24;;;;;;;3.43;1.53;;;17.00;99.90;;;;;;5082428;28;20423;-67
2023/05/16 12:27:56;;;;;;;3.63;1.60;;;16.40;99.90;;;;;;5094539;28;20407;-65
2023/05/16 12:30:27;;;;;;;3.50;1.67;;;16.30;99.90;;;;;;5082653;28;20473;-68
2023/05/16 12:32:55;;;;;;;1.97;1.30;;;16.60;99.90;;;;;;5073592;28;20424;-67
2023/05/16 12:35:22;;;;;;;3.53;1.80;;;17.40;99.90;;;;;;5084602;28;20413;-65
2023/05/16 12:37:49;;;;;;;4.30;1.33;;;17.60;99.90;;;;;;5074270;28;20399;-66
2023/05/16 12:40:15;;;;;;;4.63;1.70;;;17.40;99.90;;;;;;5076557;28;20491;-66
2023/05/16 12:42:43;;;;;;;4.43;1.90;;;15.80;99.90;;;;;;5073944;28;20766;-70
2023/05/16 12:45:17;;;;;;;5.57;1.40;;;14.80;99.90;;;;;;5074111;28;20451;-70
2023/05/16 12:47:43;;;;;;;4.83;1.63;;;14.00;99.90;;;;;;5079738;28;20553;-70
2023/05/16 12:50:13;;;;;;;5.10;2.10;;;13.50;99.90;;;;;;5083235;28;20416;-68
2023/05/16 12:52:48;;;;;;;4.03;2.00;;;13.30;99.90;;;;;;5072480;28;20433;-69